<?xml version='1.0' encoding='utf-8'?>
<gpx xmlns="http://www.topografix.com/GPX/1/1" xmlns:gpxx="http://www.garmin.com/xmlschemas/GpxExtensions/v3" xmlns:xsi="http://www.w3.org/2001/XMLSchema-instance" creator="eTrex 30" version="1.1" xsi:schemaLocation="http://www.topografix.com/GPX/1/1 http://www.topografix.com/GPX/1/1/gpx.xsd http://www.garmin.com/xmlschemas/GpxExtensions/v3 http://www8.garmin.com/xmlschemas/GpxExtensionsv3.xsd http://www.garmin.com/xmlschemas/WaypointExtension/v1 http://www8.garmin.com/xmlschemas/WaypointExtensionv1.xsd http://www.garmin.com/xmlschemas/TrackPointExtension/v1 http://www.garmin.com/xmlschemas/TrackPointExtensionv1.xsd"><metadata><link href="http://www.garmin.com"><text>Garmin International</text></link><time>2015-11-23T12:22:19Z</time></metadata><trk><name>23-NOV-15 14:22:13</name><extensions><gpxx:TrackExtension><gpxx:DisplayColor>Cyan</gpxx:DisplayColor></gpxx:TrackExtension></extensions><trkseg><trkpt lat="30.6746767089" lon="35.6105869543"><ele>1246.8</ele><time>2015-11-23T09:01:34Z</time></trkpt><trkpt lat="30.6738950964" lon="35.6116595026"><ele>1272.3</ele><time>2015-11-23T09:04:39Z</time></trkpt><trkpt lat="30.6741984375" lon="35.6124763191"><ele>1281.1</ele><time>2015-11-23T09:05:56Z</time></trkpt><trkpt lat="30.6747090630" lon="35.6128541753"><ele>1288.9</ele><time>2015-11-23T09:06:38Z</time></trkpt><trkpt lat="30.6746343803" lon="35.6128799077"><ele>1290.4</ele><time>2015-11-23T09:06:46Z</time></trkpt><trkpt lat="30.6737075094" lon="35.6127388403"><ele>1293.8</ele><time>2015-11-23T09:07:47Z</time></trkpt><trkpt lat="30.6725454424" lon="35.6119351834"><ele>1307.7</ele><time>2015-11-23T09:09:25Z</time></trkpt><trkpt lat="30.6720722839" lon="35.6104186457"><ele>1317.6</ele><time>2015-11-23T09:10:54Z</time></trkpt><trkpt lat="30.6720729545" lon="35.6103167217"><ele>1317.3</ele><time>2015-11-23T09:11:00Z</time></trkpt><trkpt lat="30.6726231426" lon="35.6096558925"><ele>1313.0</ele><time>2015-11-23T09:12:35Z</time></trkpt><trkpt lat="30.6721884571" lon="35.6101640873"><ele>1315.3</ele><time>2015-11-23T09:22:58Z</time></trkpt><trkpt lat="30.6720182206" lon="35.6103608105"><ele>1318.6</ele><time>2015-11-23T09:23:18Z</time></trkpt><trkpt lat="30.6716444716" lon="35.6103011314"><ele>1325.3</ele><time>2015-11-23T09:23:51Z</time></trkpt><trkpt lat="30.6710699759" lon="35.6105481461"><ele>1333.1</ele><time>2015-11-23T09:24:41Z</time></trkpt><trkpt lat="30.6704571750" lon="35.6115132384"><ele>1345.6</ele><time>2015-11-23T09:26:16Z</time></trkpt><trkpt lat="30.6701353937" lon="35.6117864884"><ele>1350.2</ele><time>2015-11-23T09:27:01Z</time></trkpt><trkpt lat="30.6694747321" lon="35.6124938373"><ele>1353.4</ele><time>2015-11-23T09:28:38Z</time></trkpt><trkpt lat="30.6688179262" lon="35.6132293493"><ele>1371.1</ele><time>2015-11-23T09:30:30Z</time></trkpt><trkpt lat="30.6685941294" lon="35.6131897029"><ele>1366.7</ele><time>2015-11-23T09:32:15Z</time></trkpt><trkpt lat="30.6686502881" lon="35.6132788025"><ele>1370.7</ele><time>2015-11-23T09:34:12Z</time></trkpt><trkpt lat="30.6686270703" lon="35.6131413393"><ele>1366.3</ele><time>2015-11-23T09:35:25Z</time></trkpt><trkpt lat="30.6686184369" lon="35.6131509785"><ele>1366.3</ele><time>2015-11-23T09:37:07Z</time></trkpt><trkpt lat="30.6687236298" lon="35.6132281758"><ele>1369.7</ele><time>2015-11-23T09:38:51Z</time></trkpt><trkpt lat="30.6684011780" lon="35.6136288308"><ele>1383.4</ele><time>2015-11-23T09:40:33Z</time></trkpt><trkpt lat="30.6674101856" lon="35.6142360158"><ele>1407.9</ele><time>2015-11-23T09:43:59Z</time></trkpt><trkpt lat="30.6669699680" lon="35.6144424621"><ele>1413.6</ele><time>2015-11-23T09:45:09Z</time></trkpt><trkpt lat="30.6659785565" lon="35.6159900967"><ele>1428.8</ele><time>2015-11-23T09:48:25Z</time></trkpt><trkpt lat="30.6656150334" lon="35.6164270453"><ele>1443.8</ele><time>2015-11-23T09:49:53Z</time></trkpt><trkpt lat="30.6652140431" lon="35.6165960245"><ele>1456.6</ele><time>2015-11-23T09:51:00Z</time></trkpt><trkpt lat="30.6641219649" lon="35.6166356709"><ele>1467.3</ele><time>2015-11-23T09:53:40Z</time></trkpt><trkpt lat="30.6626418047" lon="35.6174810696"><ele>1481.8</ele><time>2015-11-23T09:57:46Z</time></trkpt><trkpt lat="30.6619093101" lon="35.6173878629"><ele>1487.3</ele><time>2015-11-23T09:58:32Z</time></trkpt><trkpt lat="30.6613214873" lon="35.6172441132"><ele>1489.2</ele><time>2015-11-23T09:59:07Z</time></trkpt><trkpt lat="30.6608746480" lon="35.6174730230"><ele>1486.8</ele><time>2015-11-23T09:59:42Z</time></trkpt><trkpt lat="30.6608538609" lon="35.6174946483"><ele>1486.7</ele><time>2015-11-23T10:01:56Z</time></trkpt><trkpt lat="30.6604801118" lon="35.6184800249"><ele>1500.1</ele><time>2015-11-23T10:03:55Z</time></trkpt><trkpt lat="30.6600533053" lon="35.6205281429"><ele>1529.5</ele><time>2015-11-23T10:08:22Z</time></trkpt><trkpt lat="30.6599880103" lon="35.6206593197"><ele>1531.6</ele><time>2015-11-23T10:08:41Z</time></trkpt><trkpt lat="30.6592678372" lon="35.6222868338"><ele>1544.2</ele><time>2015-11-23T10:12:08Z</time></trkpt><trkpt lat="30.6592838466" lon="35.6230625790"><ele>1546.8</ele><time>2015-11-23T10:13:30Z</time></trkpt><trkpt lat="30.6592789013" lon="35.6231280416"><ele>1546.6</ele><time>2015-11-23T10:13:41Z</time></trkpt><trkpt lat="30.6582559738" lon="35.6246698927"><ele>1529.6</ele><time>2015-11-23T10:14:10Z</time></trkpt><trkpt lat="30.6564676110" lon="35.6278582010"><ele>1498.5</ele><time>2015-11-23T10:14:39Z</time></trkpt><trkpt lat="30.6559040956" lon="35.6288692262"><ele>1496.9</ele><time>2015-11-23T10:14:51Z</time></trkpt><trkpt lat="30.6543018110" lon="35.6312379520"><ele>1479.9</ele><time>2015-11-23T10:15:50Z</time></trkpt><trkpt lat="30.6535841525" lon="35.6323929783"><ele>1484.3</ele><time>2015-11-23T10:16:26Z</time></trkpt><trkpt lat="30.6513432506" lon="35.6362759788"><ele>1430.4</ele><time>2015-11-23T10:17:32Z</time></trkpt><trkpt lat="30.6512943842" lon="35.6363049801"><ele>1430.2</ele><time>2015-11-23T10:17:41Z</time></trkpt><trkpt lat="30.6514007505" lon="35.6362684350"><ele>1430.6</ele><time>2015-11-23T10:20:18Z</time></trkpt><trkpt lat="30.6503885519" lon="35.6377474219"><ele>1439.5</ele><time>2015-11-23T10:27:18Z</time></trkpt><trkpt lat="30.6502050720" lon="35.6379583105"><ele>1439.7</ele><time>2015-11-23T10:27:35Z</time></trkpt><trkpt lat="30.6498557981" lon="35.6382505037"><ele>1437.6</ele><time>2015-11-23T10:27:56Z</time></trkpt><trkpt lat="30.6472585816" lon="35.6399497669"><ele>1428.7</ele><time>2015-11-23T10:28:46Z</time></trkpt><trkpt lat="30.6466819067" lon="35.6403304730"><ele>1425.4</ele><time>2015-11-23T10:28:57Z</time></trkpt><trkpt lat="30.6449196115" lon="35.6410729419"><ele>1413.3</ele><time>2015-11-23T10:29:22Z</time></trkpt><trkpt lat="30.6434379425" lon="35.6421824545"><ele>1403.8</ele><time>2015-11-23T10:29:41Z</time></trkpt><trkpt lat="30.6400187965" lon="35.6432749517"><ele>1386.2</ele><time>2015-11-23T10:30:32Z</time></trkpt><trkpt lat="30.6365801208" lon="35.6432849262"><ele>1364.2</ele><time>2015-11-23T10:31:05Z</time></trkpt><trkpt lat="30.6348241959" lon="35.6432565115"><ele>1360.7</ele><time>2015-11-23T10:31:24Z</time></trkpt><trkpt lat="30.6315983366" lon="35.6427939143"><ele>1349.6</ele><time>2015-11-23T10:32:08Z</time></trkpt><trkpt lat="30.6296036951" lon="35.6425580475"><ele>1351.4</ele><time>2015-11-23T10:32:43Z</time></trkpt><trkpt lat="30.6268643215" lon="35.6425105222"><ele>1348.8</ele><time>2015-11-23T10:33:37Z</time></trkpt><trkpt lat="30.6219355110" lon="35.6424969435"><ele>1330.3</ele><time>2015-11-23T10:34:55Z</time></trkpt><trkpt lat="30.6151107140" lon="35.6429440342"><ele>1294.2</ele><time>2015-11-23T10:36:18Z</time></trkpt><trkpt lat="30.6140687596" lon="35.6431232393"><ele>1296.4</ele><time>2015-11-23T10:36:30Z</time></trkpt><trkpt lat="30.6124735996" lon="35.6438829750"><ele>1301.0</ele><time>2015-11-23T10:37:04Z</time></trkpt><trkpt lat="30.6110117119" lon="35.6438610982"><ele>1304.8</ele><time>2015-11-23T10:37:49Z</time></trkpt><trkpt lat="30.6078490522" lon="35.6446546130"><ele>1306.7</ele><time>2015-11-23T10:39:15Z</time></trkpt><trkpt lat="30.6043439917" lon="35.6445735600"><ele>1291.5</ele><time>2015-11-23T10:40:05Z</time></trkpt><trkpt lat="30.6032142788" lon="35.6445003022"><ele>1293.8</ele><time>2015-11-23T10:40:21Z</time></trkpt><trkpt lat="30.5926778913" lon="35.6412130874"><ele>1286.0</ele><time>2015-11-23T10:43:45Z</time></trkpt><trkpt lat="30.5910585076" lon="35.6406281982"><ele>1284.3</ele><time>2015-11-23T10:44:20Z</time></trkpt><trkpt lat="30.5840296112" lon="35.6380318198"><ele>1268.7</ele><time>2015-11-23T10:46:22Z</time></trkpt><trkpt lat="30.5830804445" lon="35.6376839709"><ele>1270.3</ele><time>2015-11-23T10:46:38Z</time></trkpt><trkpt lat="30.5714145955" lon="35.6321395934"><ele>1266.4</ele><time>2015-11-23T10:51:29Z</time></trkpt><trkpt lat="30.5706717074" lon="35.6318328995"><ele>1264.4</ele><time>2015-11-23T10:51:46Z</time></trkpt><trkpt lat="30.5607519764" lon="35.6290066894"><ele>1247.0</ele><time>2015-11-23T10:55:10Z</time></trkpt><trkpt lat="30.5560666602" lon="35.6283715926"><ele>1258.5</ele><time>2015-11-23T10:57:13Z</time></trkpt><trkpt lat="30.5554132070" lon="35.6282595266"><ele>1257.3</ele><time>2015-11-23T11:03:39Z</time></trkpt><trkpt lat="30.5530012306" lon="35.6280857697"><ele>1250.3</ele><time>2015-11-23T11:25:04Z</time></trkpt><trkpt lat="30.5509486701" lon="35.6278740428"><ele>1251.4</ele><time>2015-11-23T11:25:45Z</time></trkpt><trkpt lat="30.5486511067" lon="35.6280719396"><ele>1258.3</ele><time>2015-11-23T11:27:01Z</time></trkpt><trkpt lat="30.5458050314" lon="35.6290739961"><ele>1262.9</ele><time>2015-11-23T11:28:37Z</time></trkpt><trkpt lat="30.5450989399" lon="35.6291646883"><ele>1262.4</ele><time>2015-11-23T11:28:57Z</time></trkpt><trkpt lat="30.5415450968" lon="35.6286552362"><ele>1260.3</ele><time>2015-11-23T11:30:21Z</time></trkpt><trkpt lat="30.5406980217" lon="35.6280426867"><ele>1260.6</ele><time>2015-11-23T11:31:30Z</time></trkpt><trkpt lat="30.5394256487" lon="35.6261799764"><ele>1262.3</ele><time>2015-11-23T11:32:47Z</time></trkpt><trkpt lat="30.5384634063" lon="35.6251281314"><ele>1260.1</ele><time>2015-11-23T11:33:30Z</time></trkpt><trkpt lat="30.5319953430" lon="35.6181742530"><ele>1275.7</ele><time>2015-11-23T11:37:23Z</time></trkpt><trkpt lat="30.5313572288" lon="35.6168922409"><ele>1277.8</ele><time>2015-11-23T11:37:56Z</time></trkpt><trkpt lat="30.5302116740" lon="35.6118458323"><ele>1288.1</ele><time>2015-11-23T11:42:35Z</time></trkpt><trkpt lat="30.5295721348" lon="35.6098039169"><ele>1287.3</ele><time>2015-11-23T11:51:04Z</time></trkpt><trkpt lat="30.5294074304" lon="35.6087766308"><ele>1288.1</ele><time>2015-11-23T11:52:22Z</time></trkpt><trkpt lat="30.5291957036" lon="35.6070526410"><ele>1293.6</ele><time>2015-11-23T11:53:17Z</time></trkpt><trkpt lat="30.5291617569" lon="35.6051648688"><ele>1298.5</ele><time>2015-11-23T11:54:11Z</time></trkpt><trkpt lat="30.5319473147" lon="35.6001613755"><ele>1310.1</ele><time>2015-11-23T11:56:24Z</time></trkpt><trkpt lat="30.5320062395" lon="35.5997529253"><ele>1311.9</ele><time>2015-11-23T11:56:38Z</time></trkpt><trkpt lat="30.5305995885" lon="35.5954073276"><ele>1319.1</ele><time>2015-11-23T11:58:16Z</time></trkpt><trkpt lat="30.5294647627" lon="35.5915109999"><ele>1315.1</ele><time>2015-11-23T12:00:15Z</time></trkpt><trkpt lat="30.5284678191" lon="35.5899571627"><ele>1321.7</ele><time>2015-11-23T12:01:18Z</time></trkpt><trkpt lat="30.5276413634" lon="35.5879292451"><ele>1329.2</ele><time>2015-11-23T12:08:34Z</time></trkpt><trkpt lat="30.5267069489" lon="35.5858218670"><ele>1325.4</ele><time>2015-11-23T12:09:45Z</time></trkpt><trkpt lat="30.5257683434" lon="35.5844966881"><ele>1324.8</ele><time>2015-11-23T12:10:24Z</time></trkpt><trkpt lat="30.5252823606" lon="35.5834302586"><ele>1323.3</ele><time>2015-11-23T12:10:54Z</time></trkpt><trkpt lat="30.5247773509" lon="35.5816677958"><ele>1321.2</ele><time>2015-11-23T12:11:29Z</time></trkpt><trkpt lat="30.5237064790" lon="35.5809055455"><ele>1323.2</ele><time>2015-11-23T12:11:54Z</time></trkpt><trkpt lat="30.5231703725" lon="35.5796781834"><ele>1317.3</ele><time>2015-11-23T12:12:19Z</time></trkpt><trkpt lat="30.5229977053" lon="35.5764206406"><ele>1316.5</ele><time>2015-11-23T12:13:09Z</time></trkpt><trkpt lat="30.5229292251" lon="35.5749566574"><ele>1319.3</ele><time>2015-11-23T12:13:41Z</time></trkpt><trkpt lat="30.5229815282" lon="35.5734205060"><ele>1326.0</ele><time>2015-11-23T12:14:36Z</time></trkpt><trkpt lat="30.5226225313" lon="35.5723053776"><ele>1331.3</ele><time>2015-11-23T12:15:21Z</time></trkpt><trkpt lat="30.5226649437" lon="35.5720203090"><ele>1332.0</ele><time>2015-11-23T12:15:32Z</time></trkpt><trkpt lat="30.5232026428" lon="35.5711179134"><ele>1335.8</ele><time>2015-11-23T12:16:16Z</time></trkpt><trkpt lat="30.5250042491" lon="35.5688057654"><ele>1352.5</ele><time>2015-11-23T12:18:25Z</time></trkpt><trkpt lat="30.5250888225" lon="35.5685547274"><ele>1353.2</ele><time>2015-11-23T12:18:38Z</time></trkpt><trkpt lat="30.5254614819" lon="35.5667723995"><ele>1339.8</ele><time>2015-11-23T12:19:04Z</time></trkpt><trkpt lat="30.5257810000" lon="35.5663165916"><ele>1332.6</ele><time>2015-11-23T12:19:08Z</time></trkpt><trkpt lat="30.5266954657" lon="35.5653149541"><ele>1331.1</ele><time>2015-11-23T12:19:42Z</time></trkpt><trkpt lat="30.5267726630" lon="35.5649963580"><ele>1329.5</ele><time>2015-11-23T12:20:35Z</time></trkpt><trkpt lat="30.5263929628" lon="35.5656159483"><ele>1332.9</ele><time>2015-11-23T12:21:35Z</time></trkpt><trkpt lat="30.5262465309" lon="35.5651921593"><ele>1335.6</ele><time>2015-11-23T12:22:03Z</time></trkpt></trkseg></trk></gpx>